sensor_id;sensor_type;location;lat;lon;timestamp;pressure;altitude;pressure_sealevel;temperature;humidity
84145;BME280;74264;48.988;12.040;2023-11-19T00:00:31;97984.53;;;4.00;92.73
84145;BME280;74264;48.988;12.040;2023-11-19T00:02:56;97977.53;;;4.01;92.31
84145;BME280;74264;48.988;12.040;2023-11-19T00:05:22;97962.50;;;4.03;92.53
84145;BME280;74264;48.988;12.040;2023-11-19T00:07:47;97949.66;;;4.00;92.61
84145;BME280;74264;48.988;12.040;2023-11-19T00:10:15;97949.53;;;4.01;92.25
84145;BME280;74264;48.988;12.040;2023-11-19T00:12:48;97937.16;;;4.03;91.89
84145;BME280;74264;48.988;12.040;2023-11-19T00:15:14;97937.38;;;4.00;92.14
84145;BME280;74264;48.988;12.040;2023-11-19T00:17:41;97931.06;;;4.03;92.01
84145;BME280;74264;48.988;12.040;2023-11-19T00:20:17;97935.34;;;4.04;91.91
84145;BME280;74264;48.988;12.040;2023-11-19T00:22:44;97929.41;;;4.02;91.85
84145;BME280;74264;48.988;12.040;2023-11-19T00:25:11;97921.66;;;4.00;92.07
84145;BME280;74264;48.988;12.040;2023-11-19T00:27:37;97910.47;;;3.98;92.01
84145;BME280;74264;48.988;12.040;2023-11-19T00:30:06;97907.84;;;3.98;92.47
84145;BME280;74264;48.988;12.040;2023-11-19T00:32:33;97913.69;;;4.02;92.76
84145;BME280;74264;48.988;12.040;2023-11-19T00:34:59;97916.06;;;4.05;93.13
84145;BME280;74264;48.988;12.040;2023-11-19T00:37:25;97913.16;;;4.08;92.50
84145;BME280;74264;48.988;12.040;2023-11-19T00:39:51;97914.84;;;4.09;92.41
84145;BME280;74264;48.988;12.040;2023-11-19T00:42:17;97902.13;;;4.04;92.09
84145;BME280;74264;48.988;12.040;2023-11-19T00:44:43;97896.75;;;4.06;92.50
84145;BME280;74264;48.988;12.040;2023-11-19T00:47:08;97894.13;;;4.06;92.48
84145;BME280;74264;48.988;12.040;2023-11-19T00:49:34;97885.06;;;4.10;92.85
84145;BME280;74264;48.988;12.040;2023-11-19T00:52:00;97890.44;;;4.09;92.29
84145;BME280;74264;48.988;12.040;2023-11-19T00:54:27;97886.97;;;4.08;92.64
84145;BME280;74264;48.988;12.040;2023-11-19T00:56:53;97891.41;;;4.08;92.39
84145;BME280;74264;48.988;12.040;2023-11-19T00:59:19;97893.88;;;4.09;92.56
84145;BME280;74264;48.988;12.040;2023-11-19T01:01:45;97878.97;;;4.10;92.25
84145;BME280;74264;48.988;12.040;2023-11-19T01:04:10;97881.72;;;4.08;92.52
84145;BME280;74264;48.988;12.040;2023-11-19T01:06:36;97872.22;;;4.07;92.13
84145;BME280;74264;48.988;12.040;2023-11-19T01:09:02;97881.59;;;4.10;92.14
84145;BME280;74264;48.988;12.040;2023-11-19T01:11:28;97876.34;;;4.10;92.17
84145;BME280;74264;48.988;12.040;2023-11-19T01:13:53;97871.81;;;4.12;92.63
84145;BME280;74264;48.988;12.040;2023-11-19T01:16:19;97870.03;;;4.12;92.57
84145;BME280;74264;48.988;12.040;2023-11-19T01:18:47;97860.53;;;4.11;92.56
84145;BME280;74264;48.988;12.040;2023-11-19T01:21:13;97868.63;;;4.08;92.07
84145;BME280;74264;48.988;12.040;2023-11-19T01:23:40;97863.38;;;4.08;92.24
84145;BME280;74264;48.988;12.040;2023-11-19T01:26:09;97856.50;;;4.07;92.17
84145;BME280;74264;48.988;12.040;2023-11-19T01:28:41;97863.38;;;4.08;92.23
84145;BME280;74264;48.988;12.040;2023-11-19T01:31:16;97855.66;;;4.07;91.99
84145;BME280;74264;48.988;12.040;2023-11-19T01:33:42;97853.75;;;4.09;92.21
84145;BME280;74264;48.988;12.040;2023-11-19T01:36:08;97859.13;;;4.07;92.18
84145;BME280;74264;48.988;12.040;2023-11-19T01:38:35;97858.28;;;4.07;92.27
84145;BME280;74264;48.988;12.040;2023-11-19T01:41:01;97842.28;;;4.10;92.47
84145;BME280;74264;48.988;12.040;2023-11-19T01:43:40;97840.66;;;4.09;91.90
84145;BME280;74264;48.988;12.040;2023-11-19T01:46:12;97845.03;;;4.08;92.39
84145;BME280;74264;48.988;12.040;2023-11-19T01:48:44;97842.41;;;4.08;92.68
84145;BME280;74264;48.988;12.040;2023-11-19T01:51:12;97842.41;;;4.08;92.23
84145;BME280;74264;48.988;12.040;2023-11-19T01:53:39;97839.56;;;4.11;92.33
84145;BME280;74264;48.988;12.040;2023-11-19T01:56:09;97835.25;;;4.10;92.47
84145;BME280;74264;48.988;12.040;2023-11-19T01:58:38;97832.66;;;4.10;92.12
84145;BME280;74264;48.988;12.040;2023-11-19T02:01:08;97834.31;;;4.11;92.23
84145;BME280;74264;48.988;12.040;2023-11-19T02:03:34;97835.97;;;4.12;92.21
84145;BME280;74264;48.988;12.040;2023-11-19T02:06:00;97829.66;;;4.15;92.34
84145;BME280;74264;48.988;12.040;2023-11-19T02:08:26;97820.81;;;4.16;92.34
84145;BME280;74264;48.988;12.040;2023-11-19T02:10:52;97826.47;;;4.21;92.04
84145;BME280;74264;48.988;12.040;2023-11-19T02:13:20;97829.94;;;4.21;92.11
84145;BME280;74264;48.988;12.040;2023-11-19T02:15:46;97823.06;;;4.20;91.87
84145;BME280;74264;48.988;12.040;2023-11-19T02:18:26;97820.69;;;4.17;92.56
84145;BME280;74264;48.988;12.040;2023-11-19T02:20:57;97807.84;;;4.14;92.39
84145;BME280;74264;48.988;12.040;2023-11-19T02:23:23;97807.00;;;4.14;91.99
84145;BME280;74264;48.988;12.040;2023-11-19T02:26:37;97808.56;;;4.16;92.12
84145;BME280;74264;48.988;12.040;2023-11-19T02:28:59;97806.88;;;4.15;92.44
84145;BME280;74264;48.988;12.040;2023-11-19T02:31:25;97797.22;;;4.16;92.55
84145;BME280;74264;48.988;12.040;2023-11-19T02:33:52;97774.47;;;4.16;92.32
84145;BME280;74264;48.988;12.040;2023-11-19T02:36:18;97776.41;;;4.14;92.57
84145;BME280;74264;48.988;12.040;2023-11-19T02:38:43;97769.25;;;4.16;92.31
84145;BME280;74264;48.988;12.040;2023-11-19T02:41:09;97763.03;;;4.17;92.54
84145;BME280;74264;48.988;12.040;2023-11-19T02:43:36;97760.69;;;4.14;92.47
84145;BME280;74264;48.988;12.040;2023-11-19T02:46:03;97751.41;;;4.10;92.58
84145;BME280;74264;48.988;12.040;2023-11-19T02:48:37;97750.47;;;4.11;92.32
84145;BME280;74264;48.988;12.040;2023-11-19T02:51:03;97747.16;;;4.09;92.16
84145;BME280;74264;48.988;12.040;2023-11-19T02:53:30;97747.97;;;4.10;92.42
84145;BME280;74264;48.988;12.040;2023-11-19T02:55:55;97745.94;;;4.13;92.58
84145;BME280;74264;48.988;12.040;2023-11-19T02:58:27;97745.25;;;4.11;91.96
84145;BME280;74264;48.988;12.040;2023-11-19T03:00:54;97744.41;;;4.11;92.11
84145;BME280;74264;48.988;12.040;2023-11-19T03:03:26;97742.63;;;4.11;92.17
84145;BME280;74264;48.988;12.040;2023-11-19T03:06:06;97740.81;;;4.12;92.35
84145;BME280;74264;48.988;12.040;2023-11-19T03:08:34;97737.25;;;4.13;92.51
84145;BME280;74264;48.988;12.040;2023-11-19T03:11:00;97745.34;;;4.10;92.10
84145;BME280;74264;48.988;12.040;2023-11-19T03:13:26;97737.25;;;4.13;92.12
84145;BME280;74264;48.988;12.040;2023-11-19T03:15:52;97741.38;;;4.15;92.45
84145;BME280;74264;48.988;12.040;2023-11-19T03:18:19;97746.38;;;4.18;92.41
84145;BME280;74264;48.988;12.040;2023-11-19T03:20:46;97740.41;;;4.16;92.40
84145;BME280;74264;48.988;12.040;2023-11-19T03:23:13;97740.81;;;4.12;92.73
84145;BME280;74264;48.988;12.040;2023-11-19T03:25:39;97739.16;;;4.11;92.52
84145;BME280;74264;48.988;12.040;2023-11-19T03:28:04;97742.63;;;4.11;92.40
84145;BME280;74264;48.988;12.040;2023-11-19T03:30:30;97739.16;;;4.11;92.36
84145;BME280;74264;48.988;12.040;2023-11-19T03:32:57;97734.19;;;4.08;92.35
84145;BME280;74264;48.988;12.040;2023-11-19T03:35:23;97730.75;;;4.07;92.18
84145;BME280;74264;48.988;12.040;2023-11-19T03:37:50;97727.16;;;4.08;92.46
84145;BME280;74264;48.988;12.040;2023-11-19T03:40:16;97728.13;;;4.07;92.28
84145;BME280;74264;48.988;12.040;2023-11-19T03:42:46;97730.75;;;4.07;92.12
84145;BME280;74264;48.988;12.040;2023-11-19T03:45:11;97725.50;;;4.07;92.33
84145;BME280;74264;48.988;12.040;2023-11-19T03:47:37;97729.19;;;4.04;92.52
84145;BME280;74264;48.988;12.040;2023-11-19T03:50:03;97731.69;;;4.06;92.64
84145;BME280;74264;48.988;12.040;2023-11-19T03:52:30;97728.97;;;4.08;92.59
84145;BME280;74264;48.988;12.040;2023-11-19T03:54:55;97728.97;;;4.08;92.36
84145;BME280;74264;48.988;12.040;2023-11-19T03:57:22;97729.19;;;4.04;92.32
84145;BME280;74264;48.988;12.040;2023-11-19T03:59:48;97724.81;;;4.05;91.82
84145;BME280;74264;48.988;12.040;2023-11-19T04:02:14;97726.44;;;4.06;92.46
84145;BME280;74264;48.988;12.040;2023-11-19T04:04:40;97729.06;;;4.06;92.87
84145;BME280;74264;48.988;12.040;2023-11-19T04:07:06;97721.19;;;4.06;92.84
84145;BME280;74264;48.988;12.040;2023-11-19T04:09:32;97727.28;;;4.07;92.65
84145;BME280;74264;48.988;12.040;2023-11-19T04:12:03;97727.28;;;4.07;92.80
84145;BME280;74264;48.988;12.040;2023-11-19T04:14:29;97735.69;;;4.10;92.49
84145;BME280;74264;48.988;12.040;2023-11-19T04:16:54;97721.91;;;4.08;91.85
84145;BME280;74264;48.988;12.040;2023-11-19T04:19:20;97716.81;;;4.07;92.56
84145;BME280;74264;48.988;12.040;2023-11-19T04:21:46;97716.41;;;4.11;92.74
84145;BME280;74264;48.988;12.040;2023-11-19T04:24:12;97724.13;;;4.13;92.12
84145;BME280;74264;48.988;12.040;2023-11-19T04:26:43;97714.50;;;4.13;92.49
84145;BME280;74264;48.988;12.040;2023-11-19T04:29:14;97711.19;;;4.11;92.20
84145;BME280;74264;48.988;12.040;2023-11-19T04:31:41;97714.03;;;4.08;92.29
84145;BME280;74264;48.988;12.040;2023-11-19T04:34:07;97703.56;;;4.08;92.44
84145;BME280;74264;48.988;12.040;2023-11-19T04:36:33;97705.94;;;4.11;92.51
84145;BME280;74264;48.988;12.040;2023-11-19T04:38:59;97702.63;;;4.09;91.84
84145;BME280;74264;48.988;12.040;2023-11-19T04:41:26;97688.13;;;4.05;91.81
84145;BME280;74264;48.988;12.040;2023-11-19T04:43:54;97675.59;;;4.09;92.15
84145;BME280;74264;48.988;12.040;2023-11-19T04:46:20;97668.56;;;4.09;92.40
84145;BME280;74264;48.988;12.040;2023-11-19T04:48:46;97666.75;;;4.10;92.03
84145;BME280;74264;48.988;12.040;2023-11-19T04:51:11;97643.16;;;4.10;92.53
84145;BME280;74264;48.988;12.040;2023-11-19T04:53:37;97630.34;;;4.07;92.17
84145;BME280;74264;48.988;12.040;2023-11-19T04:56:12;97619.31;;;4.03;92.18
84145;BME280;74264;48.988;12.040;2023-11-19T04:58:41;97595.88;;;4.01;91.93
84145;BME280;74264;48.988;12.040;2023-11-19T05:01:13;97615.03;;;4.02;92.65
84145;BME280;74264;48.988;12.040;2023-11-19T05:03:40;97621.09;;;4.02;92.55
84145;BME280;74264;48.988;12.040;2023-11-19T05:06:06;97634.03;;;4.04;92.10
84145;BME280;74264;48.988;12.040;2023-11-19T05:08:31;97642.59;;;4.06;92.44
84145;BME280;74264;48.988;12.040;2023-11-19T05:10:57;97646.91;;;4.07;92.52
84145;BME280;74264;48.988;12.040;2023-11-19T05:13:23;97642.34;;;4.09;92.25
84145;BME280;74264;48.988;12.040;2023-11-19T05:15:48;97649.78;;;4.14;92.26
84145;BME280;74264;48.988;12.040;2023-11-19T05:18:14;97661.66;;;4.18;92.19
84145;BME280;74264;48.988;12.040;2023-11-19T05:20:39;97672.72;;;4.21;91.63
84145;BME280;74264;48.988;12.040;2023-11-19T05:23:05;97665.53;;;4.23;91.98
84145;BME280;74264;48.988;12.040;2023-11-19T05:25:34;97658.38;;;4.25;91.74
84145;BME280;74264;48.988;12.040;2023-11-19T05:27:59;97685.44;;;4.26;92.15
84145;BME280;74264;48.988;12.040;2023-11-19T05:30:25;97666.94;;;4.27;92.28
84145;BME280;74264;48.988;12.040;2023-11-19T05:32:51;97662.53;;;4.28;92.40
84145;BME280;74264;48.988;12.040;2023-11-19T05:35:17;97652.84;;;4.28;91.94
84145;BME280;74264;48.988;12.040;2023-11-19T05:37:42;97668.06;;;4.34;92.35
84145;BME280;74264;48.988;12.040;2023-11-19T05:40:08;97673.00;;;4.37;92.12
84145;BME280;74264;48.988;12.040;2023-11-19T05:42:43;97676.88;;;4.43;92.43
84145;BME280;74264;48.988;12.040;2023-11-19T05:45:11;97684.63;;;4.44;91.37
84145;BME280;74264;48.988;12.040;2023-11-19T05:47:37;97682.81;;;4.45;91.63
84145;BME280;74264;48.988;12.040;2023-11-19T05:50:02;97682.72;;;4.46;92.13
84145;BME280;74264;48.988;12.040;2023-11-19T05:52:29;97666.16;;;4.46;91.69
84145;BME280;74264;48.988;12.040;2023-11-19T05:55:00;97673.03;;;4.47;92.50
84145;BME280;74264;48.988;12.040;2023-11-19T05:57:29;97671.25;;;4.47;91.59
84145;BME280;74264;48.988;12.040;2023-11-19T05:59:54;97644.34;;;4.45;91.70
84145;BME280;74264;48.988;12.040;2023-11-19T06:02:20;97642.56;;;4.46;91.93
84145;BME280;74264;48.988;12.040;2023-11-19T06:04:45;97640.34;;;4.51;92.24
84145;BME280;74264;48.988;12.040;2023-11-19T06:07:13;97639.94;;;4.55;91.93
84145;BME280;74264;48.988;12.040;2023-11-19T06:09:40;97645.28;;;4.54;91.71
84145;BME280;74264;48.988;12.040;2023-11-19T06:12:06;97654.97;;;4.53;92.34
84145;BME280;74264;48.988;12.040;2023-11-19T06:14:32;97636.78;;;4.52;91.90
84145;BME280;74264;48.988;12.040;2023-11-19T06:16:58;97635.78;;;4.53;91.78
84145;BME280;74264;48.988;12.040;2023-11-19T06:19:23;97629.31;;;4.47;91.55
84145;BME280;74264;48.988;12.040;2023-11-19T06:21:50;97633.56;;;4.48;92.13
84145;BME280;74264;48.988;12.040;2023-11-19T06:24:16;97633.72;;;4.47;91.93
84145;BME280;74264;48.988;12.040;2023-11-19T06:26:41;97645.31;;;4.44;91.84
84145;BME280;74264;48.988;12.040;2023-11-19T06:29:07;97637.69;;;4.41;92.00
84145;BME280;74264;48.988;12.040;2023-11-19T06:31:32;97641.84;;;4.44;92.18
84145;BME280;74264;48.988;12.040;2023-11-19T06:33:58;97629.97;;;4.40;91.85
84145;BME280;74264;48.988;12.040;2023-11-19T06:36:24;97640.31;;;4.41;92.35
84145;BME280;74264;48.988;12.040;2023-11-19T06:38:50;97647.09;;;4.34;92.22
84145;BME280;74264;48.988;12.040;2023-11-19T06:41:15;97647.38;;;4.31;91.97
84145;BME280;74264;48.988;12.040;2023-11-19T06:43:41;97648.31;;;4.30;92.04
84145;BME280;74264;48.988;12.040;2023-11-19T06:46:14;97645.84;;;4.29;92.60
84145;BME280;74264;48.988;12.040;2023-11-19T06:48:40;97639.06;;;4.36;92.73
84145;BME280;74264;48.988;12.040;2023-11-19T06:51:05;97623.91;;;4.39;92.31
84145;BME280;74264;48.988;12.040;2023-11-19T06:53:31;97635.91;;;4.42;92.50
84145;BME280;74264;48.988;12.040;2023-11-19T06:55:56;97637.97;;;4.29;91.79
84145;BME280;74264;48.988;12.040;2023-11-19T06:58:22;97632.16;;;4.25;92.36
84145;BME280;74264;48.988;12.040;2023-11-19T07:00:48;97623.19;;;4.18;92.62
84145;BME280;74264;48.988;12.040;2023-11-19T07:03:17;97632.69;;;4.10;92.42
84145;BME280;74264;48.988;12.040;2023-11-19T07:05:43;97636.13;;;4.10;92.30
84145;BME280;74264;48.988;12.040;2023-11-19T07:08:09;97639.47;;;4.12;91.96
84145;BME280;74264;48.988;12.040;2023-11-19T07:10:34;97637.25;;;4.08;92.36
84145;BME280;74264;48.988;12.040;2023-11-19T07:13:00;97633.38;;;4.02;92.46
84145;BME280;74264;48.988;12.040;2023-11-19T07:15:25;97635.16;;;4.01;92.73
84145;BME280;74264;48.988;12.040;2023-11-19T07:17:51;97636.81;;;4.02;92.35
84145;BME280;74264;48.988;12.040;2023-11-19T07:20:17;97639.56;;;4.01;92.30
84145;BME280;74264;48.988;12.040;2023-11-19T07:22:43;97647.16;;;4.04;92.55
84145;BME280;74264;48.988;12.040;2023-11-19T07:25:13;97638.34;;;4.05;92.38
84145;BME280;74264;48.988;12.040;2023-11-19T07:27:39;97648.41;;;4.10;92.55
84145;BME280;74264;48.988;12.040;2023-11-19T07:30:05;97649.53;;;4.07;92.35
84145;BME280;74264;48.988;12.040;2023-11-19T07:32:35;97660.00;;;4.07;92.42
84145;BME280;74264;48.988;12.040;2023-11-19T07:35:01;97652.13;;;4.07;92.49
84145;BME280;74264;48.988;12.040;2023-11-19T07:37:27;97654.63;;;4.09;92.52
84145;BME280;74264;48.988;12.040;2023-11-19T07:39:52;97655.47;;;4.09;92.42
84145;BME280;74264;48.988;12.040;2023-11-19T07:42:18;97647.03;;;4.15;92.97
84145;BME280;74264;48.988;12.040;2023-11-19T07:44:44;97658.34;;;4.16;92.72
84145;BME280;74264;48.988;12.040;2023-11-19T07:47:09;97650.34;;;4.17;92.69
84145;BME280;74264;48.988;12.040;2023-11-19T07:49:35;97654.22;;;4.23;92.80
84145;BME280;74264;48.988;12.040;2023-11-19T07:52:01;97668.03;;;4.25;92.20
84145;BME280;74264;48.988;12.040;2023-11-19T07:54:28;97652.16;;;4.26;92.63
84145;BME280;74264;48.988;12.040;2023-11-19T07:56:54;97660.16;;;4.25;91.90
84145;BME280;74264;48.988;12.040;2023-11-19T07:59:19;97658.38;;;4.25;92.04
84145;BME280;74264;48.988;12.040;2023-11-19T08:01:45;97656.84;;;4.23;92.28
84145;BME280;74264;48.988;12.040;2023-11-19T08:04:10;97658.66;;;4.22;92.36
84145;BME280;74264;48.988;12.040;2023-11-19T08:06:36;97670.13;;;4.31;92.55
84145;BME280;74264;48.988;12.040;2023-11-19T08:09:02;97656.72;;;4.34;92.08
84145;BME280;74264;48.988;12.040;2023-11-19T08:11:27;97661.72;;;4.37;92.03
84145;BME280;74264;48.988;12.040;2023-11-19T08:13:53;97655.34;;;4.39;92.20
84145;BME280;74264;48.988;12.040;2023-11-19T08:16:19;97666.41;;;4.33;91.78
84145;BME280;74264;48.988;12.040;2023-11-19T08:18:44;97667.22;;;4.43;92.19
84145;BME280;74264;48.988;12.040;2023-11-19T08:21:10;97650.00;;;4.41;92.35
84145;BME280;74264;48.988;12.040;2023-11-19T08:23:36;97655.22;;;4.50;92.37
84145;BME280;74264;48.988;12.040;2023-11-19T08:26:02;97650.44;;;4.55;92.04
84145;BME280;74264;48.988;12.040;2023-11-19T08:28:28;97647.91;;;4.54;92.58
84145;BME280;74264;48.988;12.040;2023-11-19T08:30:53;97648.50;;;4.57;92.55
84145;BME280;74264;48.988;12.040;2023-11-19T08:33:19;97642.28;;;4.58;92.50
84145;BME280;74264;48.988;12.040;2023-11-19T08:35:48;97649.44;;;4.56;92.04
84145;BME280;74264;48.988;12.040;2023-11-19T08:38:13;97649.16;;;4.59;92.75
84145;BME280;74264;48.988;12.040;2023-11-19T08:40:39;97651.53;;;4.62;92.69
84145;BME280;74264;48.988;12.040;2023-11-19T08:43:05;97659.25;;;4.73;93.35
84145;BME280;74264;48.988;12.040;2023-11-19T08:45:31;97656.78;;;4.72;92.56
84145;BME280;74264;48.988;12.040;2023-11-19T08:47:57;97653.03;;;4.65;92.77
84145;BME280;74264;48.988;12.040;2023-11-19T08:50:23;97657.47;;;4.64;92.32
84145;BME280;74264;48.988;12.040;2023-11-19T08:52:49;97651.13;;;4.57;92.20
84145;BME280;74264;48.988;12.040;2023-11-19T08:55:15;97642.97;;;4.60;92.62
84145;BME280;74264;48.988;12.040;2023-11-19T08:57:40;97647.13;;;4.63;92.41
84145;BME280;74264;48.988;12.040;2023-11-19T09:00:09;97651.38;;;4.64;92.30
84145;BME280;74264;48.988;12.040;2023-11-19T09:02:37;97649.16;;;4.69;92.45
84145;BME280;74264;48.988;12.040;2023-11-19T09:05:04;97649.88;;;4.80;92.72
84145;BME280;74264;48.988;12.040;2023-11-19T09:07:31;97654.13;;;4.91;92.63
84145;BME280;74264;48.988;12.040;2023-11-19T09:09:56;97657.03;;;4.97;92.70
84145;BME280;74264;48.988;12.040;2023-11-19T09:12:22;97655.66;;;5.13;92.52
84145;BME280;74264;48.988;12.040;2023-11-19T09:14:47;97655.88;;;5.29;92.55
84145;BME280;74264;48.988;12.040;2023-11-19T09:17:17;97644.94;;;5.43;92.92
84145;BME280;74264;48.988;12.040;2023-11-19T09:19:44;97640.09;;;5.48;92.75
84145;BME280;74264;48.988;12.040;2023-11-19T09:22:12;97644.19;;;5.60;92.00
84145;BME280;74264;48.988;12.040;2023-11-19T09:24:37;97637.50;;;5.75;92.28
84145;BME280;74264;48.988;12.040;2023-11-19T09:27:03;97642.97;;;5.91;92.04
84145;BME280;74264;48.988;12.040;2023-11-19T09:29:31;97630.84;;;6.08;91.93
84145;BME280;74264;48.988;12.040;2023-11-19T09:31:57;97640.59;;;6.25;92.16
84145;BME280;74264;48.988;12.040;2023-11-19T09:34:23;97635.81;;;6.38;92.52
84145;BME280;74264;48.988;12.040;2023-11-19T09:36:48;97634.06;;;6.46;91.99
84145;BME280;74264;48.988;12.040;2023-11-19T09:39:14;97631.13;;;6.32;91.50
84145;BME280;74264;48.988;12.040;2023-11-19T09:41:40;97639.31;;;6.29;91.95
84145;BME280;74264;48.988;12.040;2023-11-19T09:44:08;97635.56;;;6.31;91.35
84145;BME280;74264;48.988;12.040;2023-11-19T09:46:35;97626.41;;;6.35;91.59
84145;BME280;74264;48.988;12.040;2023-11-19T09:49:06;97614.47;;;6.58;91.17
84145;BME280;74264;48.988;12.040;2023-11-19T09:51:38;97625.56;;;6.70;90.81
84145;BME280;74264;48.988;12.040;2023-11-19T09:54:04;97620.09;;;6.81;91.43
84145;BME280;74264;48.988;12.040;2023-11-19T09:56:33;97613.16;;;6.97;92.18
84145;BME280;74264;48.988;12.040;2023-11-19T09:59:01;97613.47;;;7.20;92.06
84145;BME280;74264;48.988;12.040;2023-11-19T10:01:27;97600.13;;;7.39;92.13
84145;BME280;74264;48.988;12.040;2023-11-19T10:03:55;97603.25;;;7.43;91.45
84145;BME280;74264;48.988;12.040;2023-11-19T10:06:21;97609.28;;;7.61;91.59
84145;BME280;74264;48.988;12.040;2023-11-19T10:08:47;97608.31;;;8.03;93.07
84145;BME280;74264;48.988;12.040;2023-11-19T10:11:12;97607.94;;;8.24;92.41
84145;BME280;74264;48.988;12.040;2023-11-19T10:13:38;97606.81;;;8.35;92.17
84145;BME280;74264;48.988;12.040;2023-11-19T10:18:34;97599.06;;;8.49;91.49
84145;BME280;74264;48.988;12.040;2023-11-19T10:21:06;97592.97;;;8.57;91.99
84145;BME280;74264;48.988;12.040;2023-11-19T10:23:52;97589.22;;;8.75;91.90
84145;BME280;74264;48.988;12.040;2023-11-19T10:26:20;97595.31;;;8.92;92.19
84145;BME280;74264;48.988;12.040;2023-11-19T10:28:46;97596.13;;;9.00;91.86
84145;BME280;74264;48.988;12.040;2023-11-19T10:31:16;97591.47;;;9.19;92.01
84145;BME280;74264;48.988;12.040;2023-11-19T10:33:42;97599.59;;;9.25;91.98
84145;BME280;74264;48.988;12.040;2023-11-19T10:36:11;97601.88;;;9.28;92.01
84145;BME280;74264;48.988;12.040;2023-11-19T10:38:38;97594.94;;;9.35;91.95
84145;BME280;74264;48.988;12.040;2023-11-19T10:41:05;97591.44;;;9.43;92.08
84145;BME280;74264;48.988;12.040;2023-11-19T10:43:43;97578.22;;;9.51;92.36
84145;BME280;74264;48.988;12.040;2023-11-19T10:46:13;97580.16;;;9.65;92.60
84145;BME280;74264;48.988;12.040;2023-11-19T10:48:39;97577.50;;;9.73;92.61
84145;BME280;74264;48.988;12.040;2023-11-19T10:51:07;97559.25;;;9.86;91.85
84145;BME280;74264;48.988;12.040;2023-11-19T10:53:37;97573.13;;;9.88;92.21
84145;BME280;74264;48.988;12.040;2023-11-19T10:56:11;97577.09;;;9.92;92.02
84145;BME280;74264;48.988;12.040;2023-11-19T10:58:41;97557.00;;;10.06;91.90
84145;BME280;74264;48.988;12.040;2023-11-19T11:01:17;97555.00;;;10.16;91.44
84145;BME280;74264;48.988;12.040;2023-11-19T11:03:44;97565.72;;;10.22;90.88
84145;BME280;74264;48.988;12.040;2023-11-19T11:06:13;97560.56;;;10.29;90.65
84145;BME280;74264;48.988;12.040;2023-11-19T11:08:39;97558.84;;;10.36;90.83
84145;BME280;74264;48.988;12.040;2023-11-19T11:11:05;97555.34;;;10.43;90.71
84145;BME280;74264;48.988;12.040;2023-11-19T11:13:32;97560.03;;;10.56;89.88
84145;BME280;74264;48.988;12.040;2023-11-19T11:15:59;97563.88;;;10.76;89.32
84145;BME280;74264;48.988;12.040;2023-11-19T11:18:25;97557.63;;;10.91;89.31
84145;BME280;74264;48.988;12.040;2023-11-19T11:20:55;97568.91;;;11.08;88.47
84145;BME280;74264;48.988;12.040;2023-11-19T11:28:59;97557.13;;;11.25;87.37
84145;BME280;74264;48.988;12.040;2023-11-19T11:36:49;97552.47;;;11.42;87.52
84145;BME280;74264;48.988;12.040;2023-11-19T11:39:21;97554.03;;;11.36;86.74
84145;BME280;74264;48.988;12.040;2023-11-19T11:45:12;97553.03;;;11.52;86.79
84145;BME280;74264;48.988;12.040;2023-11-19T11:50:14;97547.38;;;11.99;86.21
84145;BME280;74264;48.988;12.040;2023-11-19T11:55:27;97550.09;;;12.05;84.46
84145;BME280;74264;48.988;12.040;2023-11-19T11:57:56;97552.41;;;11.93;84.43
84145;BME280;74264;48.988;12.040;2023-11-19T12:00:38;97554.72;;;11.82;85.60
84145;BME280;74264;48.988;12.040;2023-11-19T12:03:07;97544.50;;;12.15;84.16
84145;BME280;74264;48.988;12.040;2023-11-19T12:05:38;97534.44;;;12.10;84.54
84145;BME280;74264;48.988;12.040;2023-11-19T12:08:04;97534.75;;;12.01;84.25
84145;BME280;74264;48.988;12.040;2023-11-19T12:10:36;97532.59;;;11.89;83.97
84145;BME280;74264;48.988;12.040;2023-11-19T12:13:06;97533.38;;;11.90;84.57
84145;BME280;74264;48.988;12.040;2023-11-19T12:15:32;97530.09;;;11.88;85.54
84145;BME280;74264;48.988;12.040;2023-11-19T12:17:58;97537.50;;;11.92;85.58
84145;BME280;74264;48.988;12.040;2023-11-19T12:20:25;97526.63;;;11.87;85.32
84145;BME280;74264;48.988;12.040;2023-11-19T12:22:52;97528.06;;;11.90;84.65
84145;BME280;74264;48.988;12.040;2023-11-19T12:25:18;97519.75;;;11.93;84.85
84145;BME280;74264;48.988;12.040;2023-11-19T12:27:49;97519.84;;;11.85;85.23
84145;BME280;74264;48.988;12.040;2023-11-19T12:30:22;97500.91;;;11.88;85.19
84145;BME280;74264;48.988;12.040;2023-11-19T12:32:48;97492.59;;;11.91;84.49
84145;BME280;74264;48.988;12.040;2023-11-19T12:35:14;97504.88;;;12.13;85.38
84145;BME280;74264;48.988;12.040;2023-11-19T12:37:45;97493.19;;;12.29;85.46
84145;BME280;74264;48.988;12.040;2023-11-19T12:40:16;97498.19;;;12.38;84.52
84145;BME280;74264;48.988;12.040;2023-11-19T12:42:46;97503.75;;;12.43;84.32
84145;BME280;74264;48.988;12.040;2023-11-19T12:45:12;97499.59;;;12.55;83.33
84145;BME280;74264;48.988;12.040;2023-11-19T12:47:39;97496.63;;;12.44;82.46
84145;BME280;74264;48.988;12.040;2023-11-19T12:50:07;97492.78;;;12.46;83.43
84145;BME280;74264;48.988;12.040;2023-11-19T12:52:36;97495.88;;;12.50;83.49
84145;BME280;74264;48.988;12.040;2023-11-19T12:55:24;97495.78;;;12.43;82.13
84145;BME280;74264;48.988;12.040;2023-11-19T12:57:51;97490.38;;;12.30;83.13
84145;BME280;74264;48.988;12.040;2023-11-19T13:00:23;97479.34;;;12.12;83.25
84145;BME280;74264;48.988;12.040;2023-11-19T13:05:28;97480.81;;;12.15;83.01
84145;BME280;74264;48.988;12.040;2023-11-19T13:08:03;97476.81;;;12.04;84.04
84145;BME280;74264;48.988;12.040;2023-11-19T13:10:34;97478.19;;;12.00;83.29
84145;BME280;74264;48.988;12.040;2023-11-19T13:13:15;97479.53;;;12.11;82.77
84145;BME280;74264;48.988;12.040;2023-11-19T13:15:41;97480.25;;;12.19;83.25
84145;BME280;74264;48.988;12.040;2023-11-19T13:18:06;97473.53;;;12.23;83.29
84145;BME280;74264;48.988;12.040;2023-11-19T13:20:32;97470.56;;;12.33;82.99
84145;BME280;74264;48.988;12.040;2023-11-19T13:23:00;97467.72;;;12.34;82.78